Time;durP1;ratioP1;P1;durP2;ratioP2;P2;SDS_P1;SDS_P2;PMS_P1;PMS_P2;Temp;Humidity;BMP_temperature;BMP_pressure;BME280_temperature;BME280_humidity;BME280_pressure;Samples;Min_cycle;Max_cycle;Signal;HPM_P1;HPM_P2
2023/05/27 00:04:00;;;;;;;;;;;19.90;56.80;;;;;;10130974;28;94474;-62
2023/05/27 00:09:02;;;;;;;;;;;19.90;56.70;;;;;;10129122;28;95819;-62
2023/05/27 00:14:04;;;;;;;;;;;19.90;56.70;;;;;;10130712;28;93399;-62
2023/05/27 00:19:05;;;;;;;;;;;19.80;56.60;;;;;;10131754;28;94439;-62
2023/05/27 00:24:08;;;;;;;;;;;19.90;56.70;;;;;;10131403;28;93504;-63
2023/05/27 00:29:10;;;;;;;;;;;19.80;56.60;;;;;;10129627;28;94113;-62
2023/05/27 00:34:11;;;;;;;;;;;19.80;56.60;;;;;;10131403;28;93575;-62
2023/05/27 00:39:14;;;;;;;;;;;19.80;56.60;;;;;;10128829;28;93950;-62
2023/05/27 00:44:16;;;;;;;;;;;19.80;56.60;;;;;;10131324;28;92957;-62
2023/05/27 00:49:18;;;;;;;;;;;19.80;56.50;;;;;;10129939;28;92722;-64
2023/05/27 00:54:20;;;;;;;;;;;19.70;56.40;;;;;;10129340;28;93479;-62
2023/05/27 00:59:22;;;;;;;;;;;19.70;56.40;;;;;;10127818;28;96865;-62
2023/05/27 01:04:25;;;;;;;;;;;19.70;56.40;;;;;;10129654;28;93516;-62
2023/05/27 01:09:29;;;;;;;;;;;19.70;56.40;;;;;;10129649;28;93499;-62
2023/05/27 01:14:33;;;;;;;;;;;19.70;56.40;;;;;;10129442;28;93643;-62
2023/05/27 01:19:36;;;;;;;;;;;19.70;56.40;;;;;;10129873;28;94512;-62
2023/05/27 01:24:38;;;;;;;;;;;19.70;56.40;;;;;;10113284;28;93743;-62
2023/05/27 01:29:40;;;;;;;;;;;19.60;56.30;;;;;;10129017;28;93490;-63
2023/05/27 01:35:01;;;;;;;;;;;19.60;56.40;;;;;;10112941;28;93721;-62
2023/05/27 01:40:05;;;;;;;;;;;19.60;56.40;;;;;;10129013;28;94729;-62
2023/05/27 01:45:07;;;;;;;;;;;19.60;57.40;;;;;;10127802;28;94628;-62
2023/05/27 01:50:09;;;;;;;;;;;19.60;56.30;;;;;;10125330;28;96615;-62
2023/05/27 01:55:11;;;;;;;;;;;19.60;56.30;;;;;;10110039;28;94590;-62
2023/05/27 02:00:15;;;;;;;;;;;19.60;56.30;;;;;;10128377;28;94726;-62
2023/05/27 02:05:17;;;;;;;;;;;19.60;56.30;;;;;;10127787;28;93740;-62
2023/05/27 02:10:19;;;;;;;;;;;19.60;56.20;;;;;;10128671;28;94678;-62
2023/05/27 02:15:23;;;;;;;;;;;19.60;56.20;;;;;;10126485;28;94511;-62
2023/05/27 02:20:25;;;;;;;;;;;19.60;56.10;;;;;;10127516;28;93828;-62
2023/05/27 02:25:27;;;;;;;;;;;19.60;56.10;;;;;;10127777;28;92616;-62
2023/05/27 02:30:29;;;;;;;;;;;19.60;56.10;;;;;;10126926;28;93560;-62
2023/05/27 02:35:31;;;;;;;;;;;19.60;56.00;;;;;;10127755;28;94578;-62
2023/05/27 02:40:33;;;;;;;;;;;19.60;55.90;;;;;;10124826;28;96921;-62
2023/05/27 02:45:35;;;;;;;;;;;19.60;55.90;;;;;;10109632;28;93711;-62
2023/05/27 02:50:36;;;;;;;;;;;19.60;55.90;;;;;;10127702;28;94866;-62
2023/05/27 02:55:38;;;;;;;;;;;19.60;55.80;;;;;;10126604;28;94638;-63
2023/05/27 03:00:40;;;;;;;;;;;19.60;55.80;;;;;;10127129;28;94831;-62
2023/05/27 03:05:42;;;;;;;;;;;19.60;55.80;;;;;;10125803;28;94419;-62
2023/05/27 03:10:44;;;;;;;;;;;19.60;55.70;;;;;;10126831;28;94504;-62
2023/05/27 03:15:46;;;;;;;;;;;19.50;55.70;;;;;;10126436;28;91784;-62
2023/05/27 03:20:48;;;;;;;;;;;19.50;55.70;;;;;;10125827;28;93525;-62
2023/05/27 03:25:50;;;;;;;;;;;19.50;55.70;;;;;;10125920;28;93058;-62
2023/05/27 03:30:55;;;;;;;;;;;19.50;55.70;;;;;;10123406;28;96829;-62
2023/05/27 03:35:57;;;;;;;;;;;19.50;55.70;;;;;;10125105;28;93417;-62
2023/05/27 03:40:59;;;;;;;;;;;19.50;55.70;;;;;;10132128;28;93557;-62
2023/05/27 05:04:12;;;;;;;;;;;19.30;55.60;;;;;;10138925;28;93156;-66
2023/05/27 05:09:14;;;;;;;;;;;19.30;56.00;;;;;;10129447;28;93270;-66
2023/05/27 05:14:16;;;;;;;;;;;19.30;56.00;;;;;;10129980;28;92915;-66
2023/05/27 05:19:17;;;;;;;;;;;19.30;56.10;;;;;;10129331;28;93520;-66
2023/05/27 05:24:19;;;;;;;;;;;19.30;56.10;;;;;;10112456;28;94381;-66
2023/05/27 05:29:21;;;;;;;;;;;19.30;56.20;;;;;;10126306;28;96292;-66
2023/05/27 05:34:23;;;;;;;;;;;19.30;56.30;;;;;;10129695;28;94476;-67
2023/05/27 05:39:24;;;;;;;;;;;19.30;56.30;;;;;;10128028;28;93728;-65
2023/05/27 05:44:26;;;;;;;;;;;19.40;56.20;;;;;;10129078;28;94130;-66
2023/05/27 05:49:28;;;;;;;;;;;19.40;56.20;;;;;;10127595;28;93737;-66
2023/05/27 05:54:31;;;;;;;;;;;19.40;56.30;;;;;;10111473;28;94647;-66
2023/05/27 05:59:32;;;;;;;;;;;19.40;56.30;;;;;;10110606;28;94463;-66
2023/05/27 06:04:34;;;;;;;;;;;19.40;56.30;;;;;;10147061;28;92753;-66
2023/05/27 06:09:36;;;;;;;;;;;19.50;56.20;;;;;;10150466;28;93533;-66
2023/05/27 06:14:38;;;;;;;;;;;19.50;56.40;;;;;;10167068;28;93620;-67
2023/05/27 06:19:40;;;;;;;;;;;19.60;56.40;;;;;;10164429;28;96448;-66
2023/05/27 06:24:41;;;;;;;;;;;19.60;56.40;;;;;;10149719;28;94655;-67
2023/05/27 06:29:44;;;;;;;;;;;19.70;56.50;;;;;;10167521;28;96258;-67
2023/05/27 06:34:46;;;;;;;;;;;19.70;56.50;;;;;;10166930;28;93456;-67
2023/05/27 06:39:48;;;;;;;;;;;19.70;56.40;;;;;;10166890;28;93486;-67
2023/05/27 06:44:50;;;;;;;;;;;19.80;56.50;;;;;;10167925;28;93652;-66
2023/05/27 06:49:52;;;;;;;;;;;19.80;56.50;;;;;;10150242;28;94542;-67
2023/05/27 06:54:53;;;;;;;;;;;19.80;56.40;;;;;;10169699;28;94016;-67
2023/05/27 06:59:55;;;;;;;;;;;19.90;56.60;;;;;;10167216;28;94012;-67
2023/05/27 07:04:57;;;;;;;;;;;19.90;56.40;;;;;;10166599;28;94649;-66
2023/05/27 07:09:59;;;;;;;;;;;20.00;56.70;;;;;;10165103;28;97067;-67
2023/05/27 07:15:00;;;;;;;;;;;20.00;57.60;;;;;;10173127;28;93721;-67
2023/05/27 07:20:02;;;;;;;;;;;20.00;55.90;;;;;;10173464;28;94694;-67
2023/05/27 07:25:05;;;;;;;;;;;20.00;55.30;;;;;;10155965;28;94616;-67
2023/05/27 07:30:08;;;;;;;;;;;19.90;56.00;;;;;;10172040;28;93519;-67
2023/05/27 07:35:09;;;;;;;;;;;19.90;56.50;;;;;;10173792;28;94614;-67
2023/05/27 07:40:11;;;;;;;;;;;19.90;56.70;;;;;;10172799;28;93488;-67
2023/05/27 07:45:13;;;;;;;;;;;19.90;57.10;;;;;;10173207;28;93753;-65
2023/05/27 07:50:15;;;;;;;;;;;19.90;57.10;;;;;;10172011;28;94645;-66
2023/05/27 07:55:16;;;;;;;;;;;19.90;57.10;;;;;;10171946;28;92764;-67
2023/05/27 08:00:18;;;;;;;;;;;19.90;57.10;;;;;;10169164;28;95388;-67
2023/05/27 08:05:20;;;;;;;;;;;19.90;57.10;;;;;;10171146;28;92641;-67
2023/05/27 08:10:22;;;;;;;;;;;19.80;57.00;;;;;;10171235;28;93666;-66
2023/05/27 08:15:24;;;;;;;;;;;19.80;57.00;;;;;;10171337;28;93523;-67
2023/05/27 08:20:26;;;;;;;;;;;19.80;57.00;;;;;;10171529;28;94588;-67
2023/05/27 08:25:27;;;;;;;;;;;19.80;57.00;;;;;;10169582;28;94568;-67
2023/05/27 08:30:29;;;;;;;;;;;19.70;57.00;;;;;;10171928;28;94652;-66
2023/05/27 08:35:31;;;;;;;;;;;19.70;57.00;;;;;;10170663;28;92152;-66
2023/05/27 08:40:33;;;;;;;;;;;19.70;57.00;;;;;;10169624;28;93551;-66
2023/05/27 08:45:34;;;;;;;;;;;19.70;57.00;;;;;;10171341;28;94500;-66
2023/05/27 08:50:36;;;;;;;;;;;19.80;57.00;;;;;;10151319;28;96885;-66
2023/05/27 08:55:40;;;;;;;;;;;19.80;57.00;;;;;;10170996;28;94478;-66
2023/05/27 09:00:42;;;;;;;;;;;19.70;57.00;;;;;;10170197;28;93322;-66
2023/05/27 09:05:44;;;;;;;;;;;19.70;57.00;;;;;;10169098;28;93683;-66
2023/05/27 09:10:45;;;;;;;;;;;19.70;57.00;;;;;;10169899;28;93683;-66
2023/05/27 09:15:47;;;;;;;;;;;19.70;57.00;;;;;;10169390;28;93467;-66
2023/05/27 09:20:49;;;;;;;;;;;19.70;57.00;;;;;;10169430;28;94507;-66
2023/05/27 09:25:51;;;;;;;;;;;19.70;57.00;;;;;;10153784;28;92574;-66
2023/05/27 09:31:06;;;;;;;;;;;19.70;57.00;;;;;;10169313;28;93680;-67
2023/05/27 09:36:11;;;;;;;;;;;19.70;57.00;;;;;;10169394;28;94874;-67
2023/05/27 09:41:12;;;;;;;;;;;19.70;57.00;;;;;;10166463;28;96423;-67
2023/05/27 09:46:15;;;;;;;;;;;19.70;57.00;;;;;;10169392;28;93921;-67
2023/05/27 09:51:17;;;;;;;;;;;19.80;57.00;;;;;;10150924;28;93192;-67
2023/05/27 09:56:19;;;;;;;;;;;19.80;57.00;;;;;;10169716;28;93482;-66
2023/05/27 10:01:21;;;;;;;;;;;19.90;57.10;;;;;;10152849;28;93464;-67
2023/05/27 10:06:24;;;;;;;;;;;20.00;57.00;;;;;;10167600;28;94598;-67
2023/05/27 10:11:30;;;;;;;;;;;20.10;56.90;;;;;;10168479;28;94517;-67
2023/05/27 10:16:34;;;;;;;;;;;20.20;57.00;;;;;;10169611;28;93837;-67
2023/05/27 10:21:42;;;;;;;;;;;20.30;56.80;;;;;;10168054;28;93456;-67
2023/05/27 10:26:44;;;;;;;;;;;20.30;56.60;;;;;;10150062;28;93584;-68
2023/05/27 10:31:46;;;;;;;;;;;20.40;56.70;;;;;;10165462;28;97027;-67
2023/05/27 10:36:59;;;;;;;;;;;20.50;56.80;;;;;;10167658;28;93509;-67
2023/05/27 10:42:01;;;;;;;;;;;20.50;56.70;;;;;;10168021;28;93677;-68
2023/05/27 10:47:04;;;;;;;;;;;20.50;56.80;;;;;;10173988;28;94578;-67
2023/05/27 10:52:10;;;;;;;;;;;20.50;56.70;;;;;;10163558;28;93183;-67
2023/05/27 10:57:12;;;;;;;;;;;20.50;56.60;;;;;;10181033;28;94261;-67
2023/05/27 11:02:14;;;;;;;;;;;20.60;56.80;;;;;;10146680;28;93692;-67
2023/05/27 11:07:20;;;;;;;;;;;20.50;56.80;;;;;;10180800;28;93518;-67
2023/05/27 11:12:23;;;;;;;;;;;20.60;56.90;;;;;;10180658;28;94184;-67
2023/05/27 11:17:27;;;;;;;;;;;20.50;56.90;;;;;;10179358;28;114091;-66
2023/05/27 11:22:30;;;;;;;;;;;20.60;56.90;;;;;;10159421;28;96321;-67
2023/05/27 11:27:36;;;;;;;;;;;20.50;57.00;;;;;;10178913;28;93618;-67
2023/05/27 11:32:38;;;;;;;;;;;20.50;57.10;;;;;;10161679;28;93530;-67
2023/05/27 11:37:40;;;;;;;;;;;20.50;57.10;;;;;;10179145;28;93705;-67
2023/05/27 11:42:46;;;;;;;;;;;20.50;57.30;;;;;;10178073;28;93415;-66
2023/05/27 11:47:50;;;;;;;;;;;20.50;57.30;;;;;;10161870;28;94502;-67
2023/05/27 11:52:54;;;;;;;;;;;20.50;57.40;;;;;;10161138;28;94896;-67
2023/05/27 11:57:55;;;;;;;;;;;20.40;57.00;;;;;;10176276;28;92910;-68
2023/05/27 12:02:57;;;;;;;;;;;20.40;56.70;;;;;;10171062;28;93544;-67
2023/05/27 12:07:59;;;;;;;;;;;20.40;55.90;;;;;;10172592;28;93435;-67
2023/05/27 12:13:04;;;;;;;;;;;20.40;55.80;;;;;;10169372;28;95965;-67
2023/05/27 12:18:06;;;;;;;;;;;20.40;55.70;;;;;;10171758;28;93102;-66
2023/05/27 12:23:08;;;;;;;;;;;20.40;55.80;;;;;;10171033;28;93393;-66
2023/05/27 12:28:10;;;;;;;;;;;20.40;55.90;;;;;;10154418;28;94494;-67
2023/05/27 12:33:13;;;;;;;;;;;20.30;55.90;;;;;;10171275;28;94470;-66
2023/05/27 12:38:15;;;;;;;;;;;20.30;55.90;;;;;;10170371;28;93420;-66
2023/05/27 12:43:17;;;;;;;;;;;20.40;56.10;;;;;;10171048;28;93691;-67
2023/05/27 12:48:20;;;;;;;;;;;20.30;56.10;;;;;;10154305;28;93923;-67
2023/05/27 12:53:22;;;;;;;;;;;20.40;56.20;;;;;;10153030;28;93644;-66
2023/05/27 12:58:24;;;;;;;;;;;20.30;56.20;;;;;;10167807;28;93858;-67
2023/05/27 13:03:26;;;;;;;;;;;20.30;56.30;;;;;;10167204;28;96285;-66
2023/05/27 13:08:28;;;;;;;;;;;20.30;56.30;;;;;;10169010;28;94756;-67
2023/05/27 13:13:29;;;;;;;;;;;20.30;56.50;;;;;;10170644;28;93670;-67
2023/05/27 13:18:31;;;;;;;;;;;20.30;56.40;;;;;;10170081;28;94881;-67
2023/05/27 13:23:33;;;;;;;;;;;20.30;56.50;;;;;;10169173;28;93667;-67
2023/05/27 13:28:36;;;;;;;;;;;20.30;56.60;;;;;;10168201;28;93112;-67
2023/05/27 13:33:39;;;;;;;;;;;20.30;56.60;;;;;;10169761;28;94478;-67
2023/05/27 13:38:41;;;;;;;;;;;20.30;56.70;;;;;;10170219;28;93067;-67
2023/05/27 13:43:43;;;;;;;;;;;20.30;56.80;;;;;;10169419;28;93559;-70
2023/05/27 13:48:45;;;;;;;;;;;20.40;57.20;;;;;;10168997;28;94545;-70
2023/05/27 13:53:48;;;;;;;;;;;20.30;56.40;;;;;;10167300;28;96852;-70
2023/05/27 13:58:51;;;;;;;;;;;20.30;55.70;;;;;;10168384;28;93579;-70
2023/05/27 14:03:53;;;;;;;;;;;20.30;55.40;;;;;;10168483;28;94496;-70
2023/05/27 14:08:55;;;;;;;;;;;20.30;54.90;;;;;;10168447;28;94708;-70
2023/05/27 14:13:57;;;;;;;;;;;20.30;54.60;;;;;;10169253;28;94779;-70
2023/05/27 14:18:59;;;;;;;;;;;20.40;55.10;;;;;;10167434;28;94073;-70
2023/05/27 14:24:00;;;;;;;;;;;20.30;53.80;;;;;;10167495;28;93094;-70
2023/05/27 14:29:02;;;;;;;;;;;20.30;53.70;;;;;;10168601;28;92928;-69
2023/05/27 14:34:04;;;;;;;;;;;20.40;53.30;;;;;;10167428;28;93465;-70
2023/05/27 14:39:07;;;;;;;;;;;20.30;52.80;;;;;;10151128;28;94029;-70
2023/05/27 14:44:09;;;;;;;;;;;20.30;52.50;;;;;;10165032;28;97046;-70
2023/05/27 14:49:11;;;;;;;;;;;20.30;52.10;;;;;;10172844;28;94492;-69
2023/05/27 14:54:13;;;;;;;;;;;20.30;52.10;;;;;;10172924;28;94632;-70
2023/05/27 14:59:14;;;;;;;;;;;20.40;51.80;;;;;;10169124;28;93598;-69
2023/05/27 15:04:17;;;;;;;;;;;20.30;51.60;;;;;;10166654;28;93806;-70
2023/05/27 15:09:19;;;;;;;;;;;20.40;51.30;;;;;;10166927;28;94447;-70
2023/05/27 15:14:21;;;;;;;;;;;20.30;51.00;;;;;;10167114;28;93978;-70
2023/05/27 15:19:22;;;;;;;;;;;20.30;50.60;;;;;;10166976;28;93700;-70
2023/05/27 15:24:24;;;;;;;;;;;20.40;50.60;;;;;;10167090;28;94477;-70
2023/05/27 15:29:26;;;;;;;;;;;20.40;50.40;;;;;;10165901;28;93524;-70
2023/05/27 15:34:28;;;;;;;;;;;20.40;50.40;;;;;;10151602;28;96039;-70
2023/05/27 15:39:30;;;;;;;;;;;20.40;50.20;;;;;;10172808;28;93848;-70
2023/05/27 15:44:32;;;;;;;;;;;20.40;50.00;;;;;;10172357;28;93527;-70
2023/05/27 15:49:33;;;;;;;;;;;20.40;49.90;;;;;;10154654;28;94620;-70
2023/05/27 15:54:35;;;;;;;;;;;20.40;50.30;;;;;;10172556;28;94497;-70
2023/05/27 15:59:37;;;;;;;;;;;20.40;49.80;;;;;;10172670;28;93570;-68
2023/05/27 16:04:39;;;;;;;;;;;20.40;50.00;;;;;;10171457;28;93491;-67
2023/05/27 16:09:42;;;;;;;;;;;20.40;50.20;;;;;;10172373;28;93696;-67
2023/05/27 16:14:44;;;;;;;;;;;20.40;50.20;;;;;;10154048;28;93852;-67
2023/05/27 16:19:45;;;;;;;;;;;20.40;50.00;;;;;;10170929;28;94522;-67
2023/05/27 16:24:47;;;;;;;;;;;20.40;50.30;;;;;;10169273;28;96049;-67
2023/05/27 16:29:49;;;;;;;;;;;20.40;50.50;;;;;;10154131;28;93525;-67
2023/05/27 16:34:51;;;;;;;;;;;20.40;50.70;;;;;;10154191;28;94535;-68
2023/05/27 16:39:53;;;;;;;;;;;20.40;50.70;;;;;;10171046;28;93944;-67
2023/05/27 16:44:55;;;;;;;;;;;20.50;51.50;;;;;;10170660;28;94603;-67
2023/05/27 16:49:56;;;;;;;;;;;20.50;51.60;;;;;;10169717;28;94650;-67
2023/05/27 16:54:58;;;;;;;;;;;20.50;51.70;;;;;;10153862;28;93632;-67
2023/05/27 17:00:00;;;;;;;;;;;20.60;51.70;;;;;;10171015;28;92319;-67
2023/05/27 17:05:02;;;;;;;;;;;20.50;51.80;;;;;;10170445;28;93505;-67
2023/05/27 17:10:04;;;;;;;;;;;20.60;52.00;;;;;;10170649;28;94466;-67
2023/05/27 17:15:06;;;;;;;;;;;20.60;51.90;;;;;;10150479;28;96947;-67
2023/05/27 17:20:09;;;;;;;;;;;20.70;51.90;;;;;;10170432;28;94820;-67
2023/05/27 17:25:11;;;;;;;;;;;20.80;51.70;;;;;;10169075;28;93788;-67
2023/05/27 17:30:13;;;;;;;;;;;20.80;51.50;;;;;;10169214;28;93393;-67
2023/05/27 17:35:15;;;;;;;;;;;20.90;51.50;;;;;;10169455;28;94689;-67
2023/05/27 17:40:17;;;;;;;;;;;20.80;51.40;;;;;;10170468;28;94730;-67
2023/05/27 17:45:19;;;;;;;;;;;20.90;51.40;;;;;;10169523;28;93558;-67
2023/05/27 17:50:20;;;;;;;;;;;20.90;51.40;;;;;;10168259;28;94690;-67
2023/05/27 17:55:22;;;;;;;;;;;20.90;51.40;;;;;;10167908;28;93855;-67
2023/05/27 18:00:24;;;;;;;;;;;20.90;51.30;;;;;;10168726;28;93603;-67
2023/05/27 18:05:27;;;;;;;;;;;20.90;51.30;;;;;;10164949;28;95952;-67
2023/05/27 18:10:29;;;;;;;;;;;21.00;51.30;;;;;;10168527;28;94483;-67
2023/05/27 18:15:31;;;;;;;;;;;21.00;51.10;;;;;;10168028;28;93637;-67
2023/05/27 18:20:33;;;;;;;;;;;21.10;51.20;;;;;;10167343;28;92724;-67
2023/05/27 18:25:35;;;;;;;;;;;21.10;51.10;;;;;;10168141;28;94410;-68
2023/05/27 18:30:37;;;;;;;;;;;21.10;51.60;;;;;;10167615;28;94775;-69
2023/05/27 18:35:38;;;;;;;;;;;21.10;51.70;;;;;;10166586;28;93667;-69
2023/05/27 18:40:40;;;;;;;;;;;21.10;52.80;;;;;;10168507;28;93946;-70
2023/05/27 18:45:49;;;;;;;;;;;21.10;52.70;;;;;;10149506;28;93860;-69
2023/05/27 18:50:55;;;;;;;;;;;21.00;52.70;;;;;;10149735;28;92878;-68
2023/05/27 18:55:56;;;;;;;;;;;21.00;52.60;;;;;;10164655;28;96202;-68
2023/05/27 19:00:58;;;;;;;;;;;21.00;52.70;;;;;;10166612;28;93545;-69
2023/05/27 19:06:00;;;;;;;;;;;20.90;52.70;;;;;;10166249;28;93518;-69
2023/05/27 19:11:02;;;;;;;;;;;20.90;52.80;;;;;;10156542;28;94483;-69
2023/05/27 19:16:03;;;;;;;;;;;20.80;52.80;;;;;;10173434;28;93588;-69
2023/05/27 19:21:05;;;;;;;;;;;20.80;53.50;;;;;;10173214;28;93747;-69
2023/05/27 19:26:07;;;;;;;;;;;20.80;54.50;;;;;;10174781;28;93541;-70
2023/05/27 19:31:09;;;;;;;;;;;20.80;55.10;;;;;;10173171;28;93065;-68
2023/05/27 19:36:10;;;;;;;;;;;20.80;55.40;;;;;;10172922;28;93633;-68
2023/05/27 19:41:12;;;;;;;;;;;20.70;55.70;;;;;;10172808;28;93947;-69
2023/05/27 19:46:14;;;;;;;;;;;20.80;56.20;;;;;;10170418;28;96866;-69
2023/05/27 19:51:16;;;;;;;;;;;20.70;56.50;;;;;;10172010;28;93791;-69
2023/05/27 19:56:18;;;;;;;;;;;20.70;56.80;;;;;;10154509;28;93722;-69
2023/05/27 20:01:20;;;;;;;;;;;20.70;56.90;;;;;;10172169;28;94814;-69
2023/05/27 20:06:22;;;;;;;;;;;20.60;56.80;;;;;;10154042;28;94762;-71
2023/05/27 20:11:23;;;;;;;;;;;20.60;57.20;;;;;;10171575;28;94052;-70
2023/05/27 20:16:25;;;;;;;;;;;20.60;57.10;;;;;;10172420;28;93585;-70
2023/05/27 20:21:27;;;;;;;;;;;20.60;57.30;;;;;;10171424;28;92729;-70
2023/05/27 20:26:29;;;;;;;;;;;20.60;57.50;;;;;;10176767;28;93725;-70
2023/05/27 20:31:31;;;;;;;;;;;20.70;57.50;;;;;;10175297;28;94636;-70
2023/05/27 20:36:33;;;;;;;;;;;20.60;58.70;;;;;;10171855;28;95830;-70
2023/05/27 20:41:34;;;;;;;;;;;20.60;57.70;;;;;;10170381;28;92550;-70
2023/05/27 20:46:38;;;;;;;;;;;20.60;57.80;;;;;;10171560;28;93530;-70
2023/05/27 20:51:40;;;;;;;;;;;20.60;57.90;;;;;;10170646;28;93467;-70
2023/05/27 20:56:42;;;;;;;;;;;20.60;58.10;;;;;;10169113;28;93880;-70
2023/05/27 21:01:44;;;;;;;;;;;20.70;58.20;;;;;;10152201;28;93761;-70
2023/05/27 21:06:46;;;;;;;;;;;20.60;58.30;;;;;;10170115;28;94694;-70
2023/05/27 21:11:48;;;;;;;;;;;20.60;58.30;;;;;;10170900;28;92556;-71
2023/05/27 21:16:50;;;;;;;;;;;20.60;58.40;;;;;;10169057;28;93681;-71
2023/05/27 21:21:53;;;;;;;;;;;20.60;58.30;;;;;;10169317;28;93440;-70
2023/05/27 21:26:54;;;;;;;;;;;20.60;58.40;;;;;;10166556;28;96844;-71
2023/05/27 21:31:57;;;;;;;;;;;20.60;58.50;;;;;;10168744;28;94811;-70
2023/05/27 21:36:59;;;;;;;;;;;20.50;59.40;;;;;;10168215;28;93588;-70
2023/05/27 21:42:01;;;;;;;;;;;20.50;58.40;;;;;;10168748;28;93646;-70
2023/05/27 21:47:03;;;;;;;;;;;20.50;58.30;;;;;;10169069;28;93217;-70
2023/05/27 21:52:05;;;;;;;;;;;20.50;58.30;;;;;;10167738;28;94860;-70
2023/05/27 21:57:07;;;;;;;;;;;20.50;58.20;;;;;;10168897;28;93606;-71
2023/05/27 22:02:08;;;;;;;;;;;20.50;58.30;;;;;;10169748;28;93556;-71
2023/05/27 22:07:10;;;;;;;;;;;20.50;58.20;;;;;;10168918;28;94380;-70
2023/05/27 22:12:14;;;;;;;;;;;20.40;58.20;;;;;;10167629;28;93457;-70
2023/05/27 22:17:15;;;;;;;;;;;20.40;58.40;;;;;;10165756;28;95940;-70
2023/05/27 22:22:18;;;;;;;;;;;20.40;58.20;;;;;;10149747;28;93546;-71
2023/05/27 22:27:20;;;;;;;;;;;20.40;58.10;;;;;;10168424;28;94120;-70
2023/05/27 22:32:22;;;;;;;;;;;20.30;58.10;;;;;;10149609;28;93666;-70
2023/05/27 22:37:24;;;;;;;;;;;20.30;58.10;;;;;;10167525;28;93647;-71
2023/05/27 22:42:26;;;;;;;;;;;20.30;58.00;;;;;;10149921;28;93509;-71
2023/05/27 22:47:27;;;;;;;;;;;20.30;58.10;;;;;;10149763;28;94652;-70
2023/05/27 22:52:29;;;;;;;;;;;20.30;59.00;;;;;;10166924;28;94041;-70
2023/05/27 22:57:31;;;;;;;;;;;20.30;58.00;;;;;;10167524;28;94534;-70
2023/05/27 23:02:33;;;;;;;;;;;20.30;58.00;;;;;;10165218;28;94590;-70
2023/05/27 23:07:35;;;;;;;;;;;20.30;57.90;;;;;;10126166;28;96313;-70
2023/05/27 23:12:37;;;;;;;;;;;20.30;58.00;;;;;;10127556;28;94520;-71
2023/05/27 23:17:39;;;;;;;;;;;20.30;58.00;;;;;;10128931;28;93587;-70
2023/05/27 23:22:41;;;;;;;;;;;20.30;57.90;;;;;;10128778;28;94453;-70
2023/05/27 23:27:42;;;;;;;;;;;20.30;57.90;;;;;;10129472;28;94444;-70
2023/05/27 23:32:47;;;;;;;;;;;20.30;57.80;;;;;;10128673;28;94617;-71
2023/05/27 23:37:50;;;;;;;;;;;20.30;57.80;;;;;;10127458;28;93604;-71
2023/05/27 23:42:52;;;;;;;;;;;20.30;57.80;;;;;;10110416;28;93878;-71
2023/05/27 23:47:53;;;;;;;;;;;20.30;57.70;;;;;;10126782;28;94625;-70
2023/05/27 23:52:55;;;;;;;;;;;20.30;57.80;;;;;;10111856;28;93818;-70
2023/05/27 23:57:57;;;;;;;;;;;20.30;57.70;;;;;;10130409;28;97523;-70
